Time;durP1;ratioP1;P1;durP2;ratioP2;P2;SDS_P1;SDS_P2;PMS_P1;PMS_P2;Temp;Humidity;BMP_temperature;BMP_pressure;BME280_temperature;BME280_humidity;BME280_pressure;Samples;Min_cycle;Max_cycle;Signal;HPM_P1;HPM_P2
2020/12/15 00:00:39;;;;;;;8.43;7.57;;;9.70;99.90;;;;;;4988490;28;20265;-92
2020/12/15 00:03:05;;;;;;;12.83;9.07;;;9.70;99.90;;;;;;4965260;28;20305;-91
2020/12/15 00:05:31;;;;;;;10.30;7.93;;;9.60;99.90;;;;;;4975406;28;20692;-92
2020/12/15 00:07:57;;;;;;;13.53;7.87;;;9.60;99.90;;;;;;4992237;28;20258;-92
2020/12/15 00:10:22;;;;;;;9.67;8.13;;;9.60;99.90;;;;;;4990026;28;20239;-93
2020/12/15 00:12:48;;;;;;;11.90;7.60;;;9.60;99.90;;;;;;4965517;28;20222;-91
2020/12/15 00:15:14;;;;;;;8.50;5.83;;;9.60;99.90;;;;;;4957861;28;20618;-91
2020/12/15 00:17:40;;;;;;;10.50;7.03;;;9.60;99.90;;;;;;4943347;28;20554;-93
2020/12/15 00:20:09;;;;;;;13.27;7.50;;;9.60;99.90;;;;;;4942680;28;20211;-91
2020/12/15 00:22:35;;;;;;;13.27;8.57;;;9.60;99.90;;;;;;4940913;28;20244;-92
2020/12/15 00:25:05;;;;;;;12.10;8.20;;;9.60;99.90;;;;;;4952691;28;20242;-92
2020/12/15 00:27:30;;;;;;;13.00;8.20;;;9.60;99.90;;;;;;4972580;28;20564;-89
2020/12/15 00:29:56;;;;;;;9.17;6.67;;;9.60;99.90;;;;;;4972824;28;20236;-93
2020/12/15 00:32:22;;;;;;;7.13;6.07;;;9.60;99.90;;;;;;4966177;28;20991;-92
2020/12/15 00:34:48;;;;;;;11.53;7.10;;;9.60;99.90;;;;;;4959755;28;20227;-92
2020/12/15 00:37:13;;;;;;;14.43;7.40;;;9.60;99.90;;;;;;4964605;28;20228;-92
2020/12/15 00:39:39;;;;;;;10.67;7.43;;;9.60;99.90;;;;;;4968122;28;20279;-92
2020/12/15 00:42:05;;;;;;;12.47;6.70;;;9.60;99.90;;;;;;4973715;28;20684;-91
2020/12/15 00:44:33;;;;;;;8.97;6.50;;;9.60;99.90;;;;;;4949451;28;20189;-92
2020/12/15 00:46:59;;;;;;;14.63;8.23;;;9.50;99.90;;;;;;4993099;28;20191;-91
2020/12/15 00:49:25;;;;;;;10.23;7.50;;;9.50;99.90;;;;;;4983747;28;20226;-92
2020/12/15 00:51:51;;;;;;;7.47;5.50;;;9.50;99.90;;;;;;4972914;28;20223;-92
2020/12/15 00:54:16;;;;;;;9.37;7.97;;;9.50;99.90;;;;;;4951769;28;20222;-92
2020/12/15 00:56:43;;;;;;;15.93;8.33;;;9.50;99.90;;;;;;4976027;28;20683;-91
2020/12/15 00:59:08;;;;;;;8.23;6.60;;;9.60;99.90;;;;;;4978809;28;20207;-91
2020/12/15 01:01:34;;;;;;;11.03;8.00;;;9.60;99.90;;;;;;4975632;28;20306;-91
2020/12/15 01:04:01;;;;;;;9.60;7.37;;;9.60;99.90;;;;;;4984617;28;20318;-92
2020/12/15 01:06:26;;;;;;;9.80;6.93;;;9.60;99.90;;;;;;4975230;28;20334;-91
2020/12/15 01:08:52;;;;;;;10.33;7.87;;;9.60;99.90;;;;;;4982465;28;20617;-91
2020/12/15 01:11:19;;;;;;;12.90;7.47;;;9.60;99.90;;;;;;4984242;28;20191;-93
2020/12/15 01:13:45;;;;;;;13.33;7.00;;;9.60;99.90;;;;;;4983987;28;20297;-90
2020/12/15 01:16:11;;;;;;;8.97;7.30;;;9.60;99.90;;;;;;4983979;28;20219;-92
2020/12/15 01:18:36;;;;;;;9.53;6.43;;;9.60;99.90;;;;;;4975450;28;20281;-92
2020/12/15 01:21:03;;;;;;;10.90;6.50;;;9.60;99.90;;;;;;4990747;28;21166;-93
2020/12/15 01:23:30;;;;;;;10.63;7.53;;;9.60;99.90;;;;;;4982027;28;20188;-93
2020/12/15 01:25:56;;;;;;;11.43;7.30;;;9.60;99.90;;;;;;4985965;28;20322;-92
2020/12/15 01:28:21;;;;;;;9.97;7.63;;;9.60;99.90;;;;;;4967790;28;20227;-91
2020/12/15 01:30:47;;;;;;;9.47;6.50;;;9.60;99.90;;;;;;4955301;28;20824;-93
2020/12/15 01:33:13;;;;;;;9.20;7.23;;;9.60;99.90;;;;;;4941037;28;20631;-91
2020/12/15 01:35:39;;;;;;;11.10;7.07;;;9.60;99.90;;;;;;4964308;28;20282;-92
2020/12/15 01:38:05;;;;;;;10.43;7.57;;;9.60;99.90;;;;;;4944515;28;20242;-92
2020/12/15 01:40:30;;;;;;;13.87;7.33;;;9.60;99.90;;;;;;4963750;28;20291;-92
2020/12/15 01:42:56;;;;;;;13.23;8.33;;;9.60;99.90;;;;;;4958648;28;20224;-92
2020/12/15 01:45:24;;;;;;;9.20;7.80;;;9.60;99.90;;;;;;4979710;28;20584;-92
2020/12/15 01:47:49;;;;;;;12.53;7.67;;;9.60;99.90;;;;;;4959212;28;20261;-92
2020/12/15 01:50:17;;;;;;;7.17;6.43;;;9.60;99.90;;;;;;4969231;28;20211;-91
2020/12/15 01:52:43;;;;;;;10.93;6.70;;;9.60;99.90;;;;;;4974678;28;20214;-92
2020/12/15 01:55:11;;;;;;;15.70;8.80;;;9.60;99.90;;;;;;4991771;28;20269;-91
2020/12/15 01:57:39;;;;;;;9.20;6.17;;;9.60;99.90;;;;;;4982008;28;20216;-92
2020/12/15 02:00:05;;;;;;;9.40;6.93;;;9.60;99.90;;;;;;4993053;28;20318;-91
2020/12/15 02:02:31;;;;;;;10.00;7.10;;;9.70;99.90;;;;;;4965941;28;20239;-92
2020/12/15 02:04:57;;;;;;;11.53;7.97;;;9.70;99.90;;;;;;4974936;28;20255;-92
2020/12/15 02:07:25;;;;;;;7.73;6.20;;;9.60;99.90;;;;;;4981677;28;20219;-91
2020/12/15 02:09:52;;;;;;;8.77;7.33;;;9.70;99.90;;;;;;4979545;28;20216;-92
2020/12/15 02:12:18;;;;;;;11.03;8.13;;;9.60;99.90;;;;;;4970647;28;20217;-92
2020/12/15 02:14:44;;;;;;;13.20;8.40;;;9.70;99.90;;;;;;4983208;28;20227;-92
2020/12/15 02:17:13;;;;;;;6.57;5.87;;;9.60;99.90;;;;;;4993775;28;20696;-91
2020/12/15 02:19:38;;;;;;;11.27;7.63;;;9.70;99.90;;;;;;4945109;28;20747;-92
2020/12/15 02:22:04;;;;;;;8.30;7.10;;;9.60;99.90;;;;;;4947063;28;20294;-91
2020/12/15 02:24:30;;;;;;;8.70;5.60;;;9.60;99.90;;;;;;4981893;28;20740;-92
2020/12/15 02:26:56;;;;;;;11.07;7.93;;;9.60;99.90;;;;;;4972974;28;20583;-92
2020/12/15 02:29:22;;;;;;;10.50;7.67;;;9.50;99.90;;;;;;4981746;28;20675;-90
2020/12/15 02:31:48;;;;;;;8.20;5.87;;;9.50;99.90;;;;;;4983901;28;20192;-92
2020/12/15 02:34:15;;;;;;;6.87;6.17;;;9.50;99.90;;;;;;4984034;28;20249;-90
2020/12/15 02:36:42;;;;;;;7.00;5.70;;;9.40;99.90;;;;;;4974270;28;20821;-91
2020/12/15 02:39:12;;;;;;;8.13;6.17;;;9.40;99.90;;;;;;4976429;28;20231;-91
2020/12/15 02:41:38;;;;;;;7.70;6.37;;;9.40;99.90;;;;;;4982373;28;20261;-92
2020/12/15 02:44:05;;;;;;;9.23;7.50;;;9.30;99.90;;;;;;4981676;28;20188;-91
2020/12/15 02:46:31;;;;;;;7.80;5.70;;;9.30;99.90;;;;;;4974672;28;20299;-92
2020/12/15 02:48:57;;;;;;;9.93;6.30;;;9.30;99.90;;;;;;4973570;28;20251;-92
2020/12/15 02:51:24;;;;;;;10.67;7.47;;;9.30;99.90;;;;;;4965294;28;21039;-91
2020/12/15 02:53:50;;;;;;;11.47;6.57;;;9.30;99.90;;;;;;4975650;28;20231;-92
2020/12/15 02:56:24;;;;;;;9.23;5.60;;;9.30;99.90;;;;;;4993228;28;20184;-92
2020/12/15 02:58:50;;;;;;;9.70;7.10;;;9.30;99.90;;;;;;4991511;28;20250;-92
2020/12/15 03:01:16;;;;;;;7.37;5.67;;;9.30;99.90;;;;;;4969548;28;20235;-90
2020/12/15 03:03:42;;;;;;;8.57;5.33;;;9.30;99.90;;;;;;4989855;28;20316;-92
2020/12/15 03:06:08;;;;;;;7.73;5.63;;;9.30;99.90;;;;;;4955402;28;20948;-92
2020/12/15 03:08:34;;;;;;;8.23;7.07;;;9.20;99.90;;;;;;4971359;28;20192;-91
2020/12/15 03:11:01;;;;;;;12.27;7.70;;;9.20;99.90;;;;;;4989511;28;20208;-91
2020/12/15 03:13:27;;;;;;;8.57;4.67;;;9.30;99.90;;;;;;4979584;28;20699;-91
2020/12/15 03:15:53;;;;;;;7.87;5.03;;;9.20;99.90;;;;;;4979384;28;20224;-92
2020/12/15 03:18:19;;;;;;;8.63;6.30;;;9.20;99.90;;;;;;4972071;28;20227;-92
2020/12/15 03:20:49;;;;;;;9.83;7.00;;;9.20;99.90;;;;;;4970480;28;20264;-91
2020/12/15 03:23:18;;;;;;;9.67;6.60;;;9.20;99.90;;;;;;4980178;28;20239;-92
2020/12/15 03:25:44;;;;;;;8.73;6.63;;;9.20;99.90;;;;;;4971837;28;20997;-91
2020/12/15 03:28:10;;;;;;;7.43;5.10;;;9.20;99.90;;;;;;4938270;28;20228;-92
2020/12/15 03:30:36;;;;;;;6.47;5.33;;;9.20;99.90;;;;;;4970273;28;20223;-92
2020/12/15 03:33:02;;;;;;;8.53;7.00;;;9.10;99.90;;;;;;4978403;28;20220;-91
2020/12/15 03:35:28;;;;;;;14.13;6.80;;;9.10;99.90;;;;;;4978485;28;20192;-92
2020/12/15 03:37:55;;;;;;;8.03;6.63;;;9.10;99.90;;;;;;4972288;28;20206;-92
2020/12/15 03:40:23;;;;;;;6.90;5.13;;;9.10;99.90;;;;;;4962266;28;20358;-90
2020/12/15 03:42:49;;;;;;;10.40;6.53;;;9.10;99.90;;;;;;4972054;28;20227;-92
2020/12/15 03:45:15;;;;;;;6.43;5.00;;;9.10;99.90;;;;;;4987514;28;20244;-91
2020/12/15 03:47:42;;;;;;;7.40;5.87;;;9.10;99.90;;;;;;4976135;28;20232;-92
2020/12/15 03:50:09;;;;;;;9.83;6.27;;;9.10;99.90;;;;;;4987291;28;20497;-91
2020/12/15 03:52:38;;;;;;;12.57;6.93;;;9.10;99.90;;;;;;4992605;28;20216;-92
2020/12/15 03:55:05;;;;;;;8.17;6.20;;;9.20;99.90;;;;;;4988524;28;20266;-91
2020/12/15 03:57:31;;;;;;;10.03;7.17;;;9.10;99.90;;;;;;4985694;28;20216;-89
2020/12/15 03:59:56;;;;;;;10.00;6.10;;;9.10;99.90;;;;;;4954112;28;20242;-91
2020/12/15 04:02:22;;;;;;;9.47;6.63;;;9.20;99.90;;;;;;4975119;28;20231;-92
2020/12/15 04:04:49;;;;;;;6.37;5.70;;;9.20;99.90;;;;;;4995713;28;20195;-92
2020/12/15 04:07:14;;;;;;;6.97;5.67;;;9.10;99.90;;;;;;4990763;28;20248;-90
2020/12/15 04:09:40;;;;;;;10.17;7.60;;;9.10;99.90;;;;;;4957905;28;20215;-92
2020/12/15 04:12:06;;;;;;;12.83;9.03;;;9.10;99.90;;;;;;4958600;28;21002;-91
2020/12/15 04:14:32;;;;;;;9.60;6.57;;;9.10;99.90;;;;;;4981787;28;20272;-92
2020/12/15 04:16:58;;;;;;;8.90;6.37;;;9.10;99.90;;;;;;4945833;28;20209;-92
2020/12/15 04:19:24;;;;;;;14.67;8.20;;;9.10;99.90;;;;;;4976998;28;20219;-91
2020/12/15 04:21:49;;;;;;;11.90;6.33;;;9.10;99.90;;;;;;4984349;28;20242;-91
2020/12/15 04:24:15;;;;;;;9.60;7.13;;;9.20;99.90;;;;;;4970530;28;20258;-91
2020/12/15 04:26:41;;;;;;;11.43;7.10;;;9.20;99.90;;;;;;4970380;28;20333;-91
2020/12/15 04:29:06;;;;;;;8.57;7.13;;;9.20;99.90;;;;;;4979927;28;20223;-91
2020/12/15 04:31:32;;;;;;;9.27;6.23;;;9.20;99.90;;;;;;4982820;28;20230;-91
2020/12/15 04:33:58;;;;;;;10.67;8.07;;;9.20;99.90;;;;;;4969752;28;20748;-91
2020/12/15 04:36:24;;;;;;;12.70;8.40;;;9.20;99.90;;;;;;4980355;28;20216;-91
2020/12/15 04:38:50;;;;;;;12.17;7.77;;;9.20;99.90;;;;;;4956575;28;20681;-91
2020/12/15 04:41:16;;;;;;;9.27;6.30;;;9.20;99.90;;;;;;4965887;28;20219;-92
2020/12/15 04:43:43;;;;;;;14.43;7.50;;;9.20;99.90;;;;;;4999528;28;20262;-92
2020/12/15 04:46:11;;;;;;;14.20;9.77;;;9.20;99.90;;;;;;5000372;28;20223;-90
2020/12/15 04:48:47;;;;;;;11.30;8.13;;;9.20;99.90;;;;;;4982915;28;20311;-92
2020/12/15 04:51:16;;;;;;;16.77;7.63;;;9.20;99.90;;;;;;4973103;28;20231;-92
2020/12/15 04:53:45;;;;;;;14.67;10.03;;;9.20;99.90;;;;;;4976749;28;20230;-91
2020/12/15 04:56:30;;;;;;;10.03;6.97;;;9.30;99.90;;;;;;5010070;28;20195;-91
2020/12/15 04:58:57;;;;;;;10.17;7.23;;;9.30;99.90;;;;;;4994070;28;20265;-91
2020/12/15 05:01:24;;;;;;;12.00;7.77;;;9.30;99.90;;;;;;4976090;28;20275;-92
2020/12/15 05:03:52;;;;;;;12.47;9.30;;;9.30;99.90;;;;;;4980783;28;20271;-92
2020/12/15 05:06:27;;;;;;;11.73;7.40;;;9.30;99.90;;;;;;4980285;28;21280;-91
2020/12/15 05:08:54;;;;;;;10.77;8.00;;;9.20;99.90;;;;;;4984620;28;20225;-91
2020/12/15 05:11:22;;;;;;;12.33;7.80;;;9.30;99.90;;;;;;5000292;28;20214;-91
2020/12/15 05:13:49;;;;;;;15.53;8.17;;;9.20;99.90;;;;;;4984163;28;20748;-91
2020/12/15 05:16:15;;;;;;;10.47;7.83;;;9.20;99.90;;;;;;4984703;28;20223;-91
2020/12/15 05:18:41;;;;;;;14.07;8.90;;;9.30;99.90;;;;;;4998470;28;21267;-92
2020/12/15 05:21:17;;;;;;;13.70;9.13;;;9.20;99.90;;;;;;4965732;28;20239;-92
2020/12/15 05:23:49;;;;;;;11.53;8.37;;;9.30;99.90;;;;;;4981172;28;20223;-90
2020/12/15 05:26:25;;;;;;;9.70;7.60;;;9.30;99.90;;;;;;4974627;28;20740;-91
2020/12/15 05:29:08;;;;;;;8.13;6.33;;;9.30;99.90;;;;;;4992011;28;20254;-89
2020/12/15 05:31:39;;;;;;;13.97;8.17;;;9.30;99.90;;;;;;4974829;28;20685;-91
2020/12/15 05:34:06;;;;;;;15.33;9.00;;;9.30;99.90;;;;;;4993022;28;20330;-91
2020/12/15 05:36:32;;;;;;;13.83;7.43;;;9.30;99.90;;;;;;4981136;28;20223;-91
2020/12/15 05:39:16;;;;;;;12.70;8.67;;;9.30;99.90;;;;;;4975816;28;20228;-91
2020/12/15 05:41:42;;;;;;;22.93;11.63;;;9.30;99.90;;;;;;4992834;28;20298;-91
2020/12/15 05:44:10;;;;;;;17.23;8.93;;;9.30;99.90;;;;;;4962043;28;20657;-90
2020/12/15 05:46:46;;;;;;;11.33;7.73;;;9.40;99.90;;;;;;4958749;28;20323;-90
2020/12/15 05:49:13;;;;;;;15.50;9.27;;;9.40;99.90;;;;;;4981278;28;20230;-91
2020/12/15 05:51:43;;;;;;;23.20;12.77;;;9.40;99.90;;;;;;4963445;28;20211;-91
2020/12/15 05:54:13;;;;;;;12.83;9.07;;;9.40;99.90;;;;;;4972476;28;20255;-91
2020/12/15 05:56:43;;;;;;;14.20;9.47;;;9.40;99.90;;;;;;4975098;28;20188;-90
2020/12/15 05:59:20;;;;;;;14.00;9.20;;;9.40;99.90;;;;;;4993378;28;20179;-92
2020/12/15 06:01:46;;;;;;;16.20;11.00;;;9.40;99.90;;;;;;4984231;28;20239;-90
2020/12/15 06:04:13;;;;;;;27.20;18.97;;;9.40;99.90;;;;;;4983874;28;20690;-91
2020/12/15 06:06:40;;;;;;;21.83;12.77;;;9.50;99.90;;;;;;4980928;28;20258;-91
2020/12/15 06:09:09;;;;;;;13.97;9.33;;;9.50;99.90;;;;;;4974146;28;20239;-90
2020/12/15 06:11:39;;;;;;;15.03;9.97;;;9.50;99.90;;;;;;4972280;28;20485;-92
2020/12/15 06:14:06;;;;;;;12.23;9.53;;;9.50;99.90;;;;;;4986874;28;20184;-90
2020/12/15 06:16:32;;;;;;;13.97;9.43;;;9.50;99.90;;;;;;4972582;28;20212;-91
2020/12/15 06:18:59;;;;;;;9.30;7.67;;;9.50;99.90;;;;;;4992826;28;20254;-91
2020/12/15 06:21:26;;;;;;;10.27;7.97;;;9.50;99.90;;;;;;4991879;28;20678;-90
2020/12/15 06:24:04;;;;;;;17.93;10.47;;;9.50;99.90;;;;;;4988032;28;20314;-91
2020/12/15 06:26:32;;;;;;;15.40;9.67;;;9.50;99.90;;;;;;4996889;28;20191;-91
2020/12/15 06:29:03;;;;;;;13.90;9.20;;;9.50;99.90;;;;;;5008473;28;20243;-91
2020/12/15 06:31:29;;;;;;;12.80;9.87;;;9.50;99.90;;;;;;4999041;28;20229;-90
2020/12/15 06:33:59;;;;;;;13.47;9.60;;;9.50;99.90;;;;;;4988218;28;20680;-89
2020/12/15 06:36:33;;;;;;;17.30;8.30;;;9.50;99.90;;;;;;4989858;28;20741;-91
2020/12/15 06:39:00;;;;;;;17.03;10.57;;;9.50;99.90;;;;;;4991056;28;20711;-90
2020/12/15 06:41:27;;;;;;;10.07;7.63;;;9.50;99.90;;;;;;4992183;28;20218;-89
2020/12/15 06:44:08;;;;;;;16.40;8.10;;;9.50;99.90;;;;;;4966742;28;20192;-90
2020/12/15 06:46:34;;;;;;;13.30;7.63;;;9.50;99.90;;;;;;4990535;28;20309;-90
2020/12/15 06:49:09;;;;;;;17.13;9.50;;;9.50;99.90;;;;;;4967188;28;20215;-90
2020/12/15 06:51:35;;;;;;;15.33;9.43;;;9.50;99.90;;;;;;4999100;28;20269;-92
2020/12/15 06:54:03;;;;;;;14.43;9.43;;;9.50;99.90;;;;;;4981835;28;20315;-91
2020/12/15 06:56:30;;;;;;;16.00;8.93;;;9.60;99.90;;;;;;4974299;28;20191;-90
2020/12/15 06:59:02;;;;;;;15.07;9.77;;;9.60;99.90;;;;;;4984383;28;20290;-91
2020/12/15 07:01:29;;;;;;;18.17;9.53;;;9.60;99.90;;;;;;4995951;28;20235;-92
2020/12/15 07:03:56;;;;;;;10.23;8.10;;;9.60;99.90;;;;;;4998131;28;20271;-91
2020/12/15 07:06:23;;;;;;;12.50;8.07;;;9.60;99.90;;;;;;4979711;28;20316;-91
2020/12/15 07:09:09;;;;;;;12.40;7.87;;;9.60;99.90;;;;;;4995171;28;20220;-90
2020/12/15 07:11:35;;;;;;;15.57;9.57;;;9.60;99.90;;;;;;4973342;28;20191;-88
2020/12/15 07:14:04;;;;;;;15.47;9.53;;;9.70;99.90;;;;;;4990728;28;20230;-91
2020/12/15 07:16:31;;;;;;;14.60;9.00;;;9.70;99.90;;;;;;4973530;28;20221;-90
2020/12/15 07:18:56;;;;;;;8.60;6.80;;;9.70;99.90;;;;;;4991554;28;20223;-91
2020/12/15 07:21:23;;;;;;;11.13;8.90;;;9.70;99.90;;;;;;4986062;28;20236;-88
2020/12/15 07:23:50;;;;;;;12.63;7.60;;;9.70;99.90;;;;;;4983268;28;20626;-91
2020/12/15 07:26:19;;;;;;;15.23;8.60;;;9.70;99.90;;;;;;4993674;28;20282;-90
2020/12/15 07:28:48;;;;;;;12.13;8.87;;;9.70;99.90;;;;;;4957893;28;20222;-90
2020/12/15 07:31:24;;;;;;;15.27;9.23;;;9.70;99.90;;;;;;4975745;28;20216;-90
2020/12/15 07:33:50;;;;;;;12.67;8.53;;;9.70;99.90;;;;;;4983301;28;21185;-90
2020/12/15 07:36:17;;;;;;;11.13;8.27;;;9.70;99.90;;;;;;4990736;28;20223;-92
2020/12/15 07:38:46;;;;;;;13.33;7.67;;;9.70;99.90;;;;;;5009910;28;20226;-91
2020/12/15 07:41:16;;;;;;;12.97;8.27;;;9.70;99.90;;;;;;5002433;28;20200;-93
2020/12/15 07:43:53;;;;;;;12.87;8.67;;;9.70;99.90;;;;;;5000587;28;20570;-92
2020/12/15 07:46:23;;;;;;;17.37;10.30;;;9.80;99.90;;;;;;4964616;28;20282;-94
2020/12/15 07:48:52;;;;;;;10.80;7.50;;;9.70;99.90;;;;;;4996082;28;20294;-93
2020/12/15 07:51:18;;;;;;;14.47;8.67;;;9.70;99.90;;;;;;5002049;28;20227;-93
2020/12/15 07:53:53;;;;;;;18.47;8.43;;;9.70;99.90;;;;;;4994657;28;20227;-93
2020/12/15 07:56:20;;;;;;;15.17;9.47;;;9.80;99.90;;;;;;4995949;28;20229;-92
2020/12/15 07:58:51;;;;;;;12.87;8.47;;;9.70;99.90;;;;;;4994397;28;20212;-93
2020/12/15 08:01:28;;;;;;;11.83;8.83;;;9.80;99.90;;;;;;5000374;28;20224;-94
2020/12/15 08:04:07;;;;;;;12.97;10.10;;;9.80;99.90;;;;;;4992013;28;20312;-93
2020/12/15 08:06:38;;;;;;;16.97;9.87;;;9.70;99.90;;;;;;4984855;28;20314;-94
2020/12/15 08:09:06;;;;;;;15.00;9.30;;;9.80;99.90;;;;;;5000812;28;20223;-92
2020/12/15 08:11:33;;;;;;;10.90;7.90;;;9.80;99.90;;;;;;4984350;28;20192;-95
2020/12/15 08:14:05;;;;;;;12.40;7.43;;;9.80;99.90;;;;;;5003447;28;20710;-93
2020/12/15 08:16:31;;;;;;;17.50;8.43;;;9.80;99.90;;;;;;4977112;28;20220;-95
2020/12/15 08:19:04;;;;;;;16.23;9.60;;;9.80;99.90;;;;;;4995751;28;20686;-92
2020/12/15 08:21:50;;;;;;;15.93;9.37;;;9.80;99.90;;;;;;4992013;28;20231;-92
2020/12/15 08:24:26;;;;;;;15.83;8.53;;;9.80;99.90;;;;;;4978321;28;21479;-93
2020/12/15 08:26:53;;;;;;;17.43;8.90;;;9.80;99.90;;;;;;5001453;28;20223;-95
2020/12/15 08:29:20;;;;;;;10.53;6.67;;;9.80;99.90;;;;;;4994926;28;21244;-93
2020/12/15 08:31:54;;;;;;;13.10;8.70;;;9.80;99.90;;;;;;4953473;28;20225;-93
2020/12/15 08:34:25;;;;;;;16.60;10.20;;;9.80;99.90;;;;;;4976047;28;20227;-92
2020/12/15 08:36:53;;;;;;;18.50;10.60;;;9.80;99.90;;;;;;4986234;28;20302;-95
2020/12/15 08:39:24;;;;;;;18.00;12.70;;;9.80;99.90;;;;;;4996461;28;20277;-94
2020/12/15 08:41:57;;;;;;;15.43;9.30;;;9.80;99.90;;;;;;4995075;28;20334;-93
2020/12/15 08:44:25;;;;;;;18.77;10.60;;;9.80;99.90;;;;;;4972063;28;20192;-93
2020/12/15 08:46:55;;;;;;;17.23;11.67;;;9.80;99.90;;;;;;4982353;28;20185;-92
2020/12/15 08:49:26;;;;;;;19.17;12.90;;;9.80;99.90;;;;;;4972840;28;20286;-92
2020/12/15 08:51:55;;;;;;;21.57;12.33;;;9.80;99.90;;;;;;4986736;28;20289;-90
2020/12/15 08:54:28;;;;;;;26.27;15.63;;;9.80;99.90;;;;;;4948835;28;20220;-92
2020/12/15 08:56:54;;;;;;;23.47;14.80;;;9.80;99.90;;;;;;4979722;28;20266;-92
2020/12/15 08:59:23;;;;;;;25.13;12.57;;;9.90;99.90;;;;;;4983621;28;20701;-93
2020/12/15 09:01:58;;;;;;;26.37;18.00;;;9.90;99.90;;;;;;4965266;28;20275;-93
2020/12/15 09:04:27;;;;;;;14.57;10.30;;;9.80;99.90;;;;;;4974009;28;20232;-92
2020/12/15 09:06:56;;;;;;;16.67;10.97;;;9.80;99.90;;;;;;4979002;28;20323;-91
2020/12/15 09:09:32;;;;;;;15.73;10.50;;;9.80;99.90;;;;;;4979105;28;20223;-96
2020/12/15 09:11:59;;;;;;;15.60;8.83;;;9.90;99.90;;;;;;4982453;28;20227;-92
2020/12/15 09:14:25;;;;;;;18.20;12.40;;;9.80;99.90;;;;;;4986456;28;20559;-94
2020/12/15 09:16:51;;;;;;;18.67;12.17;;;9.90;99.90;;;;;;4977626;28;20192;-91
2020/12/15 09:19:24;;;;;;;13.73;8.83;;;9.90;99.90;;;;;;4954590;28;20234;-93
2020/12/15 09:22:00;;;;;;;25.77;8.63;;;9.80;99.90;;;;;;4986137;28;20235;-92
2020/12/15 09:24:29;;;;;;;13.03;7.47;;;9.80;99.90;;;;;;4973618;28;20398;-93
2020/12/15 09:26:56;;;;;;;15.13;9.23;;;9.90;99.90;;;;;;4994525;28;20235;-91
2020/12/15 09:29:22;;;;;;;17.03;8.83;;;9.90;99.90;;;;;;4993536;28;20203;-93
2020/12/15 09:31:54;;;;;;;15.00;9.83;;;9.90;99.90;;;;;;4942858;28;20225;-91
2020/12/15 09:34:23;;;;;;;14.80;9.77;;;9.90;99.90;;;;;;4985941;28;20216;-92
2020/12/15 09:36:57;;;;;;;17.90;10.90;;;9.90;99.90;;;;;;4968252;28;20213;-91
2020/12/15 09:39:39;;;;;;;14.47;9.57;;;9.90;99.90;;;;;;4960926;28;20228;-91
2020/12/15 09:42:06;;;;;;;11.83;6.87;;;9.80;99.90;;;;;;4975740;28;20228;-90
2020/12/15 09:44:35;;;;;;;17.70;10.20;;;9.80;99.90;;;;;;4975405;28;20188;-93
2020/12/15 09:47:04;;;;;;;14.80;9.93;;;9.80;99.90;;;;;;4972573;28;20184;-93
2020/12/15 09:49:30;;;;;;;18.90;11.67;;;9.80;99.90;;;;;;4963228;28;21173;-92
2020/12/15 09:51:56;;;;;;;13.03;8.50;;;9.80;99.90;;;;;;4963577;28;20695;-91
2020/12/15 09:54:22;;;;;;;11.97;8.40;;;9.90;99.90;;;;;;4955241;28;20220;-92
2020/12/15 09:56:48;;;;;;;20.60;9.10;;;9.90;99.90;;;;;;4964745;28;20234;-91
2020/12/15 09:59:16;;;;;;;15.30;9.83;;;9.80;99.90;;;;;;4976162;28;20198;-92
2020/12/15 10:01:43;;;;;;;32.93;20.03;;;9.80;99.90;;;;;;4973531;28;20657;-92
2020/12/15 10:04:11;;;;;;;26.80;13.80;;;9.80;99.90;;;;;;4970065;28;20336;-94
2020/12/15 10:06:38;;;;;;;19.87;11.87;;;9.90;99.90;;;;;;4974954;28;20566;-94
2020/12/15 10:09:04;;;;;;;19.20;11.77;;;9.90;99.90;;;;;;4973109;28;20279;-93
2020/12/15 10:11:30;;;;;;;16.57;11.00;;;9.90;99.90;;;;;;4981432;28;20275;-92
2020/12/15 10:14:00;;;;;;;22.90;10.40;;;9.90;99.90;;;;;;4981744;28;20761;-91
2020/12/15 10:16:26;;;;;;;29.57;14.03;;;9.90;99.90;;;;;;4967227;28;20335;-91
2020/12/15 10:18:53;;;;;;;17.30;12.30;;;9.90;99.90;;;;;;4975612;28;20235;-91
2020/12/15 10:21:22;;;;;;;22.97;14.13;;;9.90;99.90;;;;;;4942913;28;20231;-94
2020/12/15 10:23:51;;;;;;;24.37;12.70;;;9.90;99.90;;;;;;4990832;28;20318;-93
2020/12/15 10:26:21;;;;;;;18.73;10.10;;;9.90;99.90;;;;;;4984546;28;20982;-94
2020/12/15 10:28:47;;;;;;;16.87;10.73;;;10.00;99.90;;;;;;4984540;28;20223;-93
2020/12/15 10:31:13;;;;;;;22.67;12.00;;;10.00;99.90;;;;;;4991424;28;20302;-92
2020/12/15 10:33:44;;;;;;;11.27;9.37;;;10.10;99.90;;;;;;4952175;28;20693;-92
2020/12/15 10:36:12;;;;;;;17.63;10.17;;;10.10;99.90;;;;;;4963147;28;20221;-91
2020/12/15 10:38:39;;;;;;;20.20;10.07;;;10.00;99.90;;;;;;4972260;28;20250;-93
2020/12/15 10:41:05;;;;;;;22.33;9.90;;;10.10;99.90;;;;;;4965850;28;20684;-93
2020/12/15 10:43:31;;;;;;;16.43;10.77;;;10.10;99.90;;;;;;4979168;28;20224;-93
2020/12/15 10:46:00;;;;;;;12.03;8.03;;;10.10;99.90;;;;;;4980138;28;20226;-93
2020/12/15 10:48:26;;;;;;;15.13;10.43;;;10.10;99.90;;;;;;4956259;28;21172;-93
2020/12/15 10:50:52;;;;;;;17.87;9.57;;;10.10;99.90;;;;;;4981386;28;20228;-93
2020/12/15 10:53:19;;;;;;;17.57;9.80;;;10.10;99.90;;;;;;4983180;28;20195;-94
2020/12/15 10:55:49;;;;;;;13.70;9.30;;;10.10;99.90;;;;;;4963372;28;20274;-93
2020/12/15 10:58:20;;;;;;;15.40;8.83;;;10.10;99.90;;;;;;4974288;28;20708;-92
2020/12/15 11:00:46;;;;;;;14.47;9.43;;;10.10;99.90;;;;;;4983797;28;20241;-94
2020/12/15 11:03:12;;;;;;;15.90;10.27;;;10.10;99.90;;;;;;4991004;28;20301;-89
2020/12/15 11:05:39;;;;;;;18.20;9.27;;;10.20;99.90;;;;;;4990768;28;20277;-92
2020/12/15 11:08:04;;;;;;;17.67;9.87;;;10.10;99.90;;;;;;4983665;28;20234;-91
2020/12/15 11:10:33;;;;;;;16.03;10.30;;;10.10;99.90;;;;;;4972183;28;20227;-91
2020/12/15 11:13:01;;;;;;;15.90;9.43;;;10.20;99.90;;;;;;4937489;28;20296;-92
2020/12/15 11:15:27;;;;;;;12.73;8.03;;;10.20;99.90;;;;;;4974041;28;20223;-92
2020/12/15 11:17:53;;;;;;;14.27;8.87;;;10.20;99.90;;;;;;4973345;28;20223;-91
2020/12/15 11:20:19;;;;;;;16.47;9.07;;;10.20;99.90;;;;;;4982776;28;20191;-90
2020/12/15 11:22:48;;;;;;;15.83;9.63;;;10.20;99.90;;;;;;4966306;28;20277;-92
2020/12/15 11:25:17;;;;;;;13.97;9.50;;;10.20;99.90;;;;;;4958507;28;20230;-92
2020/12/15 11:27:43;;;;;;;16.27;10.90;;;10.20;99.90;;;;;;4982819;28;20297;-92
2020/12/15 11:30:09;;;;;;;17.27;9.00;;;10.20;99.90;;;;;;4973389;28;20235;-91
2020/12/15 11:32:35;;;;;;;19.20;10.10;;;10.20;99.90;;;;;;4990005;28;20192;-92
2020/12/15 11:35:03;;;;;;;19.00;9.40;;;10.30;99.90;;;;;;4976047;28;20238;-92
2020/12/15 11:37:30;;;;;;;18.50;9.50;;;10.30;99.90;;;;;;4973324;28;20224;-93
2020/12/15 11:39:56;;;;;;;15.17;8.93;;;10.30;99.90;;;;;;4926948;28;20228;-91
2020/12/15 11:42:22;;;;;;;15.97;9.63;;;10.30;99.90;;;;;;4964866;28;20301;-92
2020/12/15 11:44:50;;;;;;;14.90;9.47;;;10.40;99.90;;;;;;4980662;28;20603;-93
2020/12/15 11:47:16;;;;;;;12.97;9.10;;;10.40;99.90;;;;;;4991556;28;20188;-92
2020/12/15 11:49:50;;;;;;;13.93;8.03;;;10.30;99.90;;;;;;4967565;28;20238;-91
2020/12/15 11:52:16;;;;;;;14.97;8.80;;;10.30;99.90;;;;;;4973531;28;20239;-91
2020/12/15 11:54:42;;;;;;;19.60;9.40;;;10.30;99.90;;;;;;4963649;28;20234;-91
2020/12/15 11:57:10;;;;;;;15.30;9.90;;;10.30;99.90;;;;;;4977484;28;20227;-91
2020/12/15 11:59:37;;;;;;;14.60;8.37;;;10.30;99.90;;;;;;4990353;28;20184;-92
2020/12/15 12:02:21;;;;;;;16.33;9.77;;;10.20;99.90;;;;;;4992350;28;20257;-91
2020/12/15 12:05:06;;;;;;;15.13;8.90;;;10.20;99.90;;;;;;4989157;28;20557;-92
2020/12/15 12:07:32;;;;;;;18.77;10.80;;;10.20;99.90;;;;;;4945370;28;20224;-92
2020/12/15 12:09:58;;;;;;;13.43;8.50;;;10.20;99.90;;;;;;4967203;28;20253;-91
2020/12/15 12:12:23;;;;;;;15.47;9.17;;;10.20;99.90;;;;;;4943459;28;20227;-92
2020/12/15 12:14:49;;;;;;;12.80;8.00;;;10.20;99.90;;;;;;4944214;28;20264;-92
2020/12/15 12:17:15;;;;;;;16.87;10.00;;;10.20;99.90;;;;;;4992807;28;20187;-92
2020/12/15 12:19:41;;;;;;;15.07;8.37;;;10.10;99.90;;;;;;4976404;28;21104;-92
2020/12/15 12:22:07;;;;;;;19.63;8.27;;;10.10;99.90;;;;;;4959396;28;20239;-92
2020/12/15 12:24:33;;;;;;;15.60;8.07;;;10.10;99.90;;;;;;4984234;28;20223;-94
2020/12/15 12:27:00;;;;;;;16.97;10.23;;;10.10;99.90;;;;;;4984300;28;20645;-91
2020/12/15 12:29:26;;;;;;;16.93;10.90;;;10.10;99.90;;;;;;4975374;28;20188;-93
2020/12/15 12:31:53;;;;;;;13.23;8.87;;;10.20;99.90;;;;;;4996510;28;20307;-92
2020/12/15 12:34:19;;;;;;;14.80;9.70;;;10.20;99.90;;;;;;4985789;28;20235;-93
2020/12/15 12:36:45;;;;;;;16.20;8.47;;;10.20;99.90;;;;;;4973472;28;20223;-93
2020/12/15 12:39:11;;;;;;;13.70;10.50;;;10.20;99.90;;;;;;4959475;28;20224;-94
2020/12/15 12:41:37;;;;;;;15.07;8.70;;;10.20;99.90;;;;;;4980961;28;20207;-91
2020/12/15 12:44:03;;;;;;;19.10;9.77;;;10.10;99.90;;;;;;4976847;28;20506;-91
2020/12/15 12:46:29;;;;;;;20.47;10.40;;;10.10;99.90;;;;;;4966387;28;20247;-91
2020/12/15 12:48:55;;;;;;;15.60;10.30;;;10.10;99.90;;;;;;4974952;28;20312;-92